Virtual Washington ARTCC

Weather

KBWI 272354Z 04009G19KT 8SM OVC005 21/21 A2997 RMK AO2 LTG DSNT SE-SW RAE43 TSE28 SLP147 P0011 60104 T02110206 10300 20211 50012
KDCA 272352Z 06011KT 10SM SCT016 BKN030CB OVC039 23/20 A2997 RMK AO2 LTG DSNT ALQDS RAE40 TSB11E25 SLP148 CB NE-E MOV E P0000 60000 T02330200 10294 20233 53019
KIAD 272352Z 10005KT 10SM SCT024CB BKN045 BKN085 BKN160 24/22 A2996 RMK AO2 SLP143 CB ALQDS MOV E 60001 T02390217 10283 20233 53013
KORF 272351Z 20010KT 10SM CLR 28/20 A2995 RMK AO2 SLP141 T02830200 10317 20283 51008
KRDU 272351Z 19010KT 10SM FEW035 BKN150 BKN250 27/19 A2998 RMK AO2 SLP148 T02670194 10306 20267 53008 $

Events



ZDC Activity

No controllers online.

News



The information contained on all pages of this website is to be used for flight simulation purposes only on the VATSIM network. It is not intended nor should it be used for real world navigation.This site is not affiliated with the FAA, the actual Washington Center or any governing aviation body. All content contained herein is approved only for use on the VATSIM network. ©2016 Virtual Washington ARTCC -- Source Code © 2016-2017 W. Guisbond and R. Rump.
By using this website you agree to all VATSIM Privacy Regulations as can be found on https://www.vatsim.net/documents/privacy-policy. This website uses cookie$